createdAt,value
2018-05-12T00:03:35.358Z,10.50
2018-05-12T00:08:18.715Z,10.50
2018-05-12T00:13:02.799Z,10.50
2018-05-12T00:17:46.927Z,10.50
2018-05-12T00:22:30.261Z,10.40
2018-05-12T00:27:13.560Z,10.40
2018-05-12T00:31:57.209Z,10.40
2018-05-12T00:36:40.561Z,10.50
2018-05-12T00:41:23.922Z,10.50
2018-05-12T00:46:07.262Z,10.50
2018-05-12T00:50:50.612Z,10.40
2018-05-12T00:55:33.952Z,10.40
2018-05-12T01:00:17.248Z,10.30
2018-05-12T01:05:00.632Z,10.20
2018-05-12T01:09:44.031Z,10.30
2018-05-12T01:14:27.364Z,10.50
2018-05-12T01:19:11.439Z,10.90
2018-05-12T01:23:54.751Z,10.90
2018-05-12T01:28:38.106Z,10.90
2018-05-12T01:33:22.205Z,10.90
2018-05-12T01:38:05.564Z,10.80
2018-05-12T01:42:48.939Z,10.80
2018-05-12T01:47:32.327Z,10.90
2018-05-12T01:52:15.668Z,10.90
2018-05-12T01:56:59.108Z,10.90
2018-05-12T02:01:42.414Z,10.80
2018-05-12T02:06:25.746Z,10.90
2018-05-12T02:11:09.155Z,10.80
2018-05-12T02:15:52.502Z,10.70
2018-05-12T02:20:36.670Z,10.70
2018-05-12T02:25:20.094Z,10.70
2018-05-12T02:30:03.462Z,10.70
2018-05-12T02:34:47.522Z,10.70
2018-05-12T02:39:30.936Z,10.70
2018-05-12T02:44:14.299Z,10.50
2018-05-12T02:48:58.401Z,10.60
2018-05-12T02:53:41.709Z,10.60
2018-05-12T02:58:25.773Z,11.30
2018-05-12T03:03:10.032Z,11.30
2018-05-12T03:07:53.445Z,11.30
2018-05-12T03:12:36.822Z,11.10
2018-05-12T03:17:20.993Z,10.60
2018-05-12T03:22:05.576Z,10.60
2018-05-12T03:26:48.975Z,10.50
2018-05-12T03:31:32.313Z,10.30
2018-05-12T03:36:16.425Z,10.30
2018-05-12T03:40:59.771Z,10.30
2018-05-12T03:45:44.639Z,10.40
2018-05-12T03:50:28.155Z,10.40
2018-05-12T03:55:11.431Z,10.60
2018-05-12T03:59:54.864Z,10.70
2018-05-12T04:04:49.903Z,10.80
2018-05-12T04:09:44.959Z,10.90
2018-05-12T04:14:28.407Z,11.10
2018-05-12T04:19:11.799Z,11.20
2018-05-12T04:23:55.143Z,11.40
2018-05-12T04:28:39.288Z,11.90
2018-05-12T04:33:22.613Z,11.90
2018-05-12T04:38:07.469Z,12.40
2018-05-12T04:42:50.959Z,12.40
2018-05-12T04:47:34.297Z,12.90
2018-05-12T04:52:17.851Z,13.40
2018-05-12T04:57:01.188Z,13.50
2018-05-12T05:01:44.495Z,13.50
2018-05-12T05:06:27.949Z,13.70
2018-05-12T05:11:11.302Z,13.80
2018-05-12T05:15:54.777Z,13.90
2018-05-12T05:20:38.124Z,14.00
2018-05-12T05:25:21.510Z,14.10
2018-05-12T05:30:04.841Z,14.40
2018-05-12T05:34:48.280Z,14.60
2018-05-12T05:39:31.698Z,14.80
2018-05-12T05:44:24.872Z,14.90
2018-05-12T05:49:17.966Z,15.00
2018-05-12T05:54:01.473Z,15.20
2018-05-12T05:58:45.613Z,15.60
2018-05-12T06:03:29.800Z,15.90
2018-05-12T06:08:13.163Z,15.90
2018-05-12T06:12:56.527Z,16.20
2018-05-12T06:17:39.895Z,16.40
2018-05-12T06:22:24.019Z,16.30
2018-05-12T06:27:07.490Z,16.50
2018-05-12T06:31:50.923Z,16.80
2018-05-12T06:36:34.367Z,16.70
2018-05-12T06:41:18.519Z,17.20
2018-05-12T06:46:02.193Z,17.20
2018-05-12T06:50:46.508Z,17.60
2018-05-12T06:55:29.848Z,17.80
2018-05-12T07:00:14.744Z,18.40
2018-05-12T07:04:59.412Z,18.90
2018-05-12T07:09:42.996Z,18.90
2018-05-12T07:14:39.655Z,19.30
2018-05-12T07:19:25.528Z,19.40
2018-05-12T07:24:17.949Z,19.50
2018-05-12T07:29:07.851Z,19.60
2018-05-12T07:33:51.191Z,19.80
2018-05-12T07:38:34.535Z,20.00
2018-05-12T07:43:17.948Z,20.10
2018-05-12T07:48:01.271Z,20.20
2018-05-12T07:52:45.445Z,20.70
2018-05-12T07:57:28.755Z,20.60
2018-05-12T08:02:12.124Z,20.80
2018-05-12T08:06:56.238Z,21.60
2018-05-12T08:11:39.604Z,21.50
2018-05-12T08:16:23.748Z,22.10
2018-05-12T08:21:07.150Z,22.10
2018-05-12T08:25:50.693Z,22.50
2018-05-12T08:30:34.050Z,22.80
2018-05-12T08:35:17.517Z,23.10
2018-05-12T08:40:01.618Z,23.70
2018-05-12T08:44:44.934Z,23.60
2018-05-12T08:49:29.079Z,24.30
2018-05-12T08:54:13.227Z,24.40
2018-05-12T08:58:56.599Z,24.40
2018-05-12T09:03:40.710Z,24.70
2018-05-12T09:08:24.095Z,24.70
2018-05-12T09:13:08.239Z,25.30
2018-05-12T09:17:51.793Z,25.30
2018-05-12T09:22:35.177Z,25.60
2018-05-12T09:27:18.514Z,25.90
2018-05-12T09:32:01.929Z,25.80
2018-05-12T09:36:46.010Z,26.10
2018-05-12T09:41:29.421Z,26.00
2018-05-12T09:46:12.820Z,26.40
2018-05-12T09:50:56.514Z,26.20
2018-05-12T09:55:40.584Z,26.50
2018-05-12T10:00:25.927Z,26.50
2018-05-12T10:05:09.256Z,26.60
2018-05-12T10:09:53.442Z,26.60
2018-05-12T10:14:37.554Z,26.70
2018-05-12T10:19:20.980Z,26.70
2018-05-12T10:24:04.262Z,26.90
2018-05-12T10:28:47.897Z,27.00
2018-05-12T10:33:31.304Z,27.60
2018-05-12T10:38:15.409Z,28.80
2018-05-12T10:42:58.739Z,28.70
2018-05-12T10:47:42.253Z,29.20
2018-05-12T10:52:25.653Z,29.40
2018-05-12T10:57:09.224Z,29.30
2018-05-12T11:01:52.700Z,29.20
2018-05-12T11:06:36.059Z,29.60
2018-05-12T11:11:19.421Z,28.90
2018-05-12T11:16:03.638Z,28.10
2018-05-12T11:20:47.033Z,28.20
2018-05-12T11:25:30.433Z,28.40
2018-05-12T11:30:14.524Z,29.50
2018-05-12T11:34:58.715Z,29.40
2018-05-12T11:39:42.950Z,29.90
2018-05-12T11:44:26.459Z,29.80
2018-05-12T11:49:10.403Z,29.70
2018-05-12T11:53:53.758Z,29.70
2018-05-12T11:58:37.057Z,30.40
2018-05-12T12:03:20.399Z,30.80
2018-05-12T12:08:03.737Z,30.80
2018-05-12T12:12:47.317Z,30.80
2018-05-12T12:17:30.757Z,31.00
2018-05-12T12:22:14.939Z,31.20
2018-05-12T12:26:58.276Z,31.10
2018-05-12T12:31:41.664Z,30.80
2018-05-12T12:36:25.820Z,30.90
2018-05-12T12:41:09.919Z,30.80
2018-05-12T12:45:53.305Z,30.80
2018-05-12T12:50:37.447Z,30.70
2018-05-12T12:55:20.760Z,30.60
2018-05-12T13:00:04.100Z,30.70
2018-05-12T13:04:47.426Z,31.00
2018-05-12T13:09:30.827Z,30.20
2018-05-12T13:14:14.470Z,29.80
2018-05-12T13:18:57.879Z,30.10
2018-05-12T13:23:41.169Z,30.30
2018-05-12T13:28:25.353Z,29.80
2018-05-12T13:33:08.700Z,29.70
2018-05-12T13:37:52.036Z,29.80
2018-05-12T13:42:35.502Z,29.90
2018-05-12T13:47:18.857Z,29.90
2018-05-12T13:52:02.907Z,29.80
2018-05-12T13:56:46.354Z,29.80
2018-05-12T14:01:29.643Z,29.70
2018-05-12T14:06:12.949Z,29.30
2018-05-12T14:10:56.260Z,29.40
2018-05-12T14:15:39.656Z,29.80
2018-05-12T14:20:23.737Z,29.40
2018-05-12T14:25:08.109Z,29.40
2018-05-12T14:29:51.563Z,29.60
2018-05-12T14:34:34.944Z,29.90
2018-05-12T14:39:18.259Z,29.80
2018-05-12T14:44:01.611Z,29.50
2018-05-12T14:48:44.938Z,29.30
2018-05-12T14:53:28.237Z,29.20
2018-05-12T14:58:11.557Z,28.90
2018-05-12T15:02:55.648Z,28.70
2018-05-12T15:07:38.970Z,28.70
2018-05-12T15:12:22.339Z,28.80
2018-05-12T15:17:05.711Z,29.20
2018-05-12T15:21:49.062Z,29.00
2018-05-12T15:26:32.415Z,28.90
2018-05-12T15:31:16.529Z,29.30
2018-05-12T15:36:00.611Z,29.60
2018-05-12T15:40:44.913Z,29.90
2018-05-12T15:45:28.249Z,29.90
2018-05-12T15:50:12.421Z,30.10
2018-05-12T15:54:55.756Z,30.10
2018-05-12T15:59:39.176Z,29.90
2018-05-12T16:04:22.651Z,29.60
2018-05-12T16:09:06.017Z,29.70
2018-05-12T16:13:49.518Z,30.00
2018-05-12T16:18:33.697Z,29.90
2018-05-12T16:23:17.073Z,29.90
2018-05-12T16:28:00.399Z,30.20
2018-05-12T16:32:43.800Z,30.30
2018-05-12T16:37:27.212Z,30.40
2018-05-12T16:42:11.387Z,30.40
2018-05-12T16:46:54.892Z,30.30
2018-05-12T16:51:38.265Z,30.30
2018-05-12T16:56:21.733Z,30.20
2018-05-12T17:01:06.071Z,29.80
2018-05-12T17:05:50.286Z,29.10
2018-05-12T17:10:34.468Z,28.60
2018-05-12T17:15:17.859Z,28.60
2018-05-12T17:20:01.284Z,27.90
2018-05-12T17:24:44.672Z,27.60
2018-05-12T17:29:28.013Z,26.80
2018-05-12T17:34:11.519Z,25.50
2018-05-12T17:38:55.779Z,23.50
2018-05-12T17:43:39.304Z,23.50
2018-05-12T17:48:22.780Z,22.90
2018-05-12T17:53:06.523Z,22.40
2018-05-12T17:57:50.871Z,22.00
2018-05-12T18:02:34.215Z,22.00
2018-05-12T18:07:17.626Z,21.60
2018-05-12T18:12:01.005Z,21.40
2018-05-12T18:16:44.364Z,21.20
2018-05-12T18:21:27.883Z,21.00
2018-05-12T18:26:11.274Z,20.80
2018-05-12T18:30:54.743Z,20.60
2018-05-12T18:35:38.923Z,20.30
2018-05-12T18:40:23.041Z,20.00
2018-05-12T18:45:06.388Z,20.00
2018-05-12T18:49:49.847Z,19.80
2018-05-12T18:54:33.284Z,19.50
2018-05-12T18:59:16.755Z,19.30
2018-05-12T19:04:00.148Z,19.10
2018-05-12T19:08:43.590Z,18.90
2018-05-12T19:13:31.569Z,18.60
2018-05-12T19:18:15.401Z,18.50
2018-05-12T19:22:59.080Z,18.30
2018-05-12T19:27:43.555Z,17.70
2018-05-12T19:32:29.319Z,17.70
2018-05-12T19:37:12.890Z,17.50
2018-05-12T19:41:57.150Z,17.40
2018-05-12T19:46:41.538Z,17.50
2018-05-12T19:51:26.485Z,17.40
2018-05-12T19:56:10.105Z,17.40
2018-05-12T20:00:53.498Z,17.30
2018-05-12T20:05:37.096Z,17.30
2018-05-12T20:15:11.663Z,17.20
2018-05-12T20:19:55.052Z,17.30
2018-05-12T20:24:38.581Z,17.20
2018-05-12T20:29:21.987Z,17.30
2018-05-12T20:34:05.357Z,17.10
2018-05-12T20:38:50.372Z,17.00
2018-05-12T20:43:34.604Z,17.00
2018-05-12T20:48:18.080Z,16.80
2018-05-12T20:53:02.267Z,16.80
2018-05-12T20:57:45.756Z,16.80
2018-05-12T21:02:30.025Z,16.60
2018-05-12T21:07:14.194Z,16.40
2018-05-12T21:11:58.499Z,16.20
2018-05-12T21:16:41.967Z,16.10
2018-05-12T21:21:25.413Z,16.10
2018-05-12T21:26:08.786Z,16.10
2018-05-12T21:30:52.903Z,15.90
2018-05-12T21:35:36.289Z,15.90
2018-05-12T21:40:20.407Z,15.70
2018-05-12T21:45:03.964Z,15.70
2018-05-12T21:49:47.501Z,15.60
2018-05-12T21:54:31.074Z,15.40
2018-05-12T21:59:15.160Z,15.40
2018-05-12T22:03:59.339Z,15.30
2018-05-12T22:08:42.771Z,15.20
2018-05-12T22:13:26.442Z,15.20
2018-05-12T22:18:09.889Z,15.10
2018-05-12T22:22:53.369Z,14.90
2018-05-12T22:27:37.603Z,14.60
2018-05-12T22:32:21.185Z,14.60
2018-05-12T22:37:05.484Z,14.40
2018-05-12T22:41:49.227Z,14.50
2018-05-12T22:46:32.778Z,14.50
2018-05-12T22:51:16.870Z,14.50
2018-05-12T22:56:00.237Z,14.50
2018-05-12T23:00:44.629Z,14.50
2018-05-12T23:05:30.673Z,14.50
2018-05-12T23:10:16.919Z,14.60
2018-05-12T23:15:04.206Z,14.60
2018-05-12T23:19:53.398Z,14.60
2018-05-12T23:24:43.943Z,14.70
2018-05-12T23:29:28.691Z,14.70
2018-05-12T23:34:15.594Z,14.60
2018-05-12T23:38:59.981Z,14.50
2018-05-12T23:43:46.728Z,14.60
2018-05-12T23:48:32.003Z,14.70
2018-05-12T23:53:18.724Z,14.60
2018-05-12T23:58:03.117Z,14.50
